Metropolis, IL

1:04 AM CST on December 25, 2014 (GMT -0600)
Metropolis | Change Station
CLOSE
Current Station
Airport
Location: Metropolis,
Elevation: 384 ft
Nearby Weather Stations

Elev 384 ft 37.18 °N, 88.75 °W | Updated 9 minutes ago

Overcast
Overcast
40 °F
Feels Like 36 °F
N
5
Wind Variable Wind from WSW

Today
High -- | Low -- °F
--% Chance of Precip.
Yesterday
High -- | Low -- °F
Precip. -- in
7:06 AM 4:43 PM
Waxing Crescent, 14% visible
Pressure 29.93 in
Visibility 10.0 miles
Clouds Scattered Clouds 2100 ft
Scattered Clouds 2600 ft
Overcast 4000 ft
Windchill 36 °F
Dew Point 36 °F
Humidity 88%
Rainfall 0.00 in
Snow Depth Not available.
UV 0 out of 12
Pollen .50 out of 12
Air Quality Not available.
Flu Activity Not available.
METAR KM30 250655Z AUTO 25004KT 10SM SCT021 SCT026 OVC040 04/03 A2993 RMK AO2 T00430025

More Conditions Fewer Conditions

Pressure 29.93 in
Visibility 10.0 miles
Clouds Scattered Clouds 2100 ft
Scattered Clouds 2600 ft
Overcast 4000 ft
Windchill 36 °F
Dew Point 36 °F
Humidity 88%
Rainfall 0.00 in
Snow Depth Not available.
UV 0 out of 12
Pollen .50 out of 12
Air Quality Not available.
Flu Activity Not available.
METAR KM30 250655Z AUTO 25004KT 10SM SCT021 SCT026 OVC040 04/03 A2993 RMK AO2 T00430025

More Conditions Fewer Conditions

10-Day Weather Forecast

Almanac

Astronomy

Dec. 25, 2014 Rise Set
Actual Time
Civil Twilight
Nautical Twilight
Astronomical Twilight
Moon
Length of Visible Light
Length of Day
Tomorrow will be .
, % of the Moon is Illuminated

Today's Extremes

State Highs State Lows

Community

WunderPhotos

Upload Photos

1,780,250 photos uploaded!

WunderBlogs® & News

Nearby

Air Quality

  Air Quality AQ Index Pollutant
Not available.

Snow Depth

Station Depth Elevation

Earthquake Activity

City Distance Mag. Time & Date
Minimum magnitude displayed is 2.5.

Coastal Water Temperatures

Place Temperature

Nearby Weather Stations